Climatologie pour Saint-Brevin les Pins
Jour • Résumé pour décembre 08, 2017 Système :  Anglais    Métrique   Mixte
« - 1 jour
+ 1 jour »
Jour Semaine Mois Année Personnalisé
  Maximum : Minimum : Moyenne :
Température sous abri : 50.4 °F 36 °F 43.3 °F
Point de rosée : 43.3 °F 32.9 °F 38.1 °F
Humidité : 95 % 62 % 82 %
Vitesse du vent : 16 mph 0 mph 5 mph
Rafale : 20 mph - -
Direction :- - NW
Pression : 30.3 in 30.1 in -
Précipitations : 0 in    
Historical Graphs
 
 
Tableau de données pour décembre 08, 2017
Heure Tempé Pt rosée Pression Vent Vitesse Rafale Humidité Taux pluie (/hr) Soleil
00:00 44.4 °F 42.6 °F 30.1 in NW 4 mph 9 mph 93 % 0 in 0 W/m2
00:15 43.7 °F 41.7 °F 30.1 in WNW 2 mph 7 mph 93 % 0 in 0 W/m2
00:20 43.5 °F 41.9 °F 30.1 in NW 3 mph 7 mph 94 % 0 in 0 W/m2
00:25 43.9 °F 42.3 °F 30.2 in NW 5 mph 10 mph 94 % 0 in 0 W/m2
00:30 44.4 °F 43 °F 30.2 in NW 3 mph 10 mph 95 % 0 in 0 W/m2
00:35 44.8 °F 43.3 °F 30.2 in NW 5 mph 9 mph 95 % 0 in 0 W/m2
00:40 44.8 °F 43.2 °F 30.2 in WNW 2 mph 9 mph 94 % 0 in 0 W/m2
00:45 44.6 °F 43 °F 30.2 in WNW 4 mph 9 mph 94 % 0 in 0 W/m2
00:50 44.2 °F 42.3 °F 30.2 in NNW 2 mph 6 mph 93 % 0 in 0 W/m2
00:55 43.9 °F 41.9 °F 30.2 in WNW 7 mph 7 mph 93 % 0 in 0 W/m2
01:00 43.9 °F 42.3 °F 30.2 in Calm   7 mph 94 % 0 in 0 W/m2
01:05 43.9 °F 42.3 °F 30.2 in NW 2 mph 8 mph 94 % 0 in 0 W/m2
01:10 44.1 °F 42.4 °F 30.2 in NW 4 mph 8 mph 94 % 0 in 0 W/m2
01:20 43.9 °F 42.3 °F 30.2 in NNW 6 mph 9 mph 94 % 0 in 0 W/m2
01:25 43.9 °F 42.3 °F 30.2 in WNW 6 mph 9 mph 94 % 0 in 0 W/m2
01:30 44.1 °F 42.4 °F 30.2 in WNW 1 mph 9 mph 94 % 0 in 0 W/m2
01:35 44.1 °F 42.4 °F 30.2 in NW 4 mph 8 mph 94 % 0 in 0 W/m2
01:40 43.9 °F 42.3 °F 30.1 in WNW 3 mph 8 mph 94 % 0 in 0 W/m2
01:45 43.9 °F 41.9 °F 30.2 in NW 4 mph 8 mph 93 % 0 in 0 W/m2
01:50 43.7 °F 41.7 °F 30.2 in NW 5 mph 7 mph 93 % 0 in 0 W/m2
01:55 43.5 °F 41.7 °F 30.2 in WNW 7 mph 7 mph 93 % 0 in 0 W/m2
02:00 43.5 °F 41.7 °F 30.2 in WNW 4 mph 8 mph 93 % 0 in 0 W/m2
02:05 43.5 °F 41.7 °F 30.2 in WNW 2 mph 8 mph 93 % 0 in 0 W/m2
02:10 43.5 °F 41.7 °F 30.2 in NW 3 mph 8 mph 93 % 0 in 0 W/m2
02:15 43.7 °F 41.7 °F 30.2 in NW 7 mph 8 mph 93 % 0 in 0 W/m2
02:20 43.9 °F 41.9 °F 30.2 in NW 6 mph 8 mph 93 % 0 in 0 W/m2
02:25 44.2 °F 42.6 °F 30.2 in WNW 4 mph 9 mph 94 % 0 in 0 W/m2
02:30 44.6 °F 42.6 °F 30.2 in NW 6 mph 14 mph 93 % 0 in 0 W/m2
02:35 45 °F 43 °F 30.2 in NW 4 mph 14 mph 93 % 0 in 0 W/m2
02:40 45.1 °F 43 °F 30.2 in NW 5 mph 11 mph 92 % 0 in 0 W/m2
02:45 45.3 °F 43.2 °F 30.2 in WNW 4 mph 11 mph 92 % 0 in 0 W/m2
02:50 45.5 °F 43.3 °F 30.2 in NNW 4 mph 9 mph 92 % 0 in 0 W/m2
02:55 45.7 °F 43.2 °F 30.2 in NNW 7 mph 9 mph 91 % 0 in 0 W/m2
03:00 45.7 °F 43.2 °F 30.2 in WNW 7 mph 8 mph 91 % 0 in 0 W/m2
03:05 45.5 °F 42.8 °F 30.2 in NW 6 mph 10 mph 90 % 0 in 0 W/m2
03:10 45.3 °F 42.6 °F 30.2 in West 3 mph 11 mph 90 % 0 in 0 W/m2
03:15 45.3 °F 42.3 °F 30.2 in WNW 2 mph 11 mph 89 % 0 in 0 W/m2
03:20 45.1 °F 42.1 °F 30.2 in WNW 3 mph 10 mph 89 % 0 in 0 W/m2
03:25 45 °F 41.7 °F 30.2 in West 4 mph 10 mph 88 % 0 in 0 W/m2
03:30 44.8 °F 41.5 °F 30.2 in NW 4 mph 10 mph 88 % 0 in 0 W/m2
03:35 44.8 °F 41 °F 30.2 in WNW 3 mph 10 mph 87 % 0 in 0 W/m2
03:45 44.4 °F 40.8 °F 30.2 in NW 5 mph 11 mph 87 % 0 in 0 W/m2
03:50 44.4 °F 40.5 °F 30.2 in NW 5 mph 9 mph 86 % 0 in 0 W/m2
03:55 44.2 °F 40.5 °F 30.2 in NW 4 mph 8 mph 86 % 0 in 0 W/m2
04:00 44.2 °F 40.3 °F 30.2 in NW 3 mph 10 mph 86 % 0 in 0 W/m2
04:05 44.1 °F 40.1 °F 30.2 in WNW 1 mph 10 mph 86 % 0 in 0 W/m2
04:10 44.1 °F 40.1 °F 30.2 in WNW 7 mph 9 mph 86 % 0 in 0 W/m2
04:20 43.9 °F 39.9 °F 30.2 in NW 3 mph 10 mph 86 % 0 in 0 W/m2
04:30 43.5 °F 39.9 °F 30.2 in NW 5 mph 10 mph 87 % 0 in 0 W/m2
04:35 43.5 °F 39.9 °F 30.2 in WNW 3 mph 10 mph 87 % 0 in 0 W/m2
04:40 43.3 °F 39.7 °F 30.2 in WNW 4 mph 10 mph 87 % 0 in 0 W/m2
04:45 43.3 °F 40.1 °F 30.2 in NNW 5 mph 9 mph 88 % 0 in 0 W/m2
04:50 43.3 °F 40.1 °F 30.2 in WNW 5 mph 9 mph 88 % 0 in 0 W/m2
04:55 43.3 °F 40.1 °F 30.2 in NNW 8 mph 10 mph 88 % 0 in 0 W/m2
05:05 43.3 °F 39.9 °F 30.2 in NW 6 mph 10 mph 88 % 0 in 0 W/m2
05:10 43.3 °F 39.9 °F 30.2 in NW 3 mph 9 mph 88 % 0 in 0 W/m2
05:15 43.3 °F 39.9 °F 30.2 in WNW 2 mph 8 mph 88 % 0 in 0 W/m2
05:25 43.2 °F 40.1 °F 30.2 in WNW 2 mph 11 mph 89 % 0 in 0 W/m2
05:30 43.3 °F 40.3 °F 30.2 in WNW 8 mph 13 mph 89 % 0 in 0 W/m2
05:35 43.3 °F 40.3 °F 30.2 in NW 4 mph 13 mph 89 % 0 in 0 W/m2
05:40 43.3 °F 40.3 °F 30.2 in NW 4 mph 12 mph 89 % 0 in 0 W/m2
05:45 43.3 °F 40.5 °F 30.2 in WNW 8 mph 14 mph 89 % 0 in 0 W/m2
05:50 43.3 °F 40.5 °F 30.2 in NW 7 mph 14 mph 89 % 0 in 0 W/m2
05:55 43.3 °F 40.1 °F 30.2 in WNW 9 mph 13 mph 88 % 0 in 0 W/m2
06:00 43.3 °F 40.1 °F 30.2 in NNW 2 mph 11 mph 88 % 0 in 0 W/m2
06:05 43.3 °F 40.1 °F 30.2 in NW 5 mph 11 mph 88 % 0 in 0 W/m2
06:10 43.3 °F 39.9 °F 30.2 in NW 6 mph 9 mph 88 % 0 in 0 W/m2
06:15 43.3 °F 39.9 °F 30.2 in WNW 6 mph 9 mph 88 % 0 in 0 W/m2
06:20 43.2 °F 39.9 °F 30.2 in NW 6 mph 9 mph 88 % 0 in 0 W/m2
06:25 43.2 °F 39.7 °F 30.2 in WNW 3 mph 8 mph 88 % 0 in 0 W/m2
06:30 43 °F 39.6 °F 30.2 in NW 5 mph 9 mph 88 % 0 in 0 W/m2
06:35 42.8 °F 39.6 °F 30.2 in NW 2 mph 9 mph 88 % 0 in 0 W/m2
06:40 42.6 °F 39.4 °F 30.2 in WNW 7 mph 8 mph 88 % 0 in 0 W/m2
06:45 42.4 °F 39.2 °F 30.2 in NW 2 mph 8 mph 88 % 0 in 0 W/m2
06:55 42.3 °F 39.2 °F 30.2 in WNW 3 mph 7 mph 89 % 0 in 0 W/m2
07:00 42.1 °F 38.8 °F 30.2 in NW 1 mph 6 mph 88 % 0 in 0 W/m2
07:05 41.9 °F 38.7 °F 30.2 in WNW 2 mph 6 mph 88 % 0 in 0 W/m2
07:10 41.7 °F 38.5 °F 30.2 in NW 3 mph 7 mph 88 % 0 in 0 W/m2
07:15 41.5 °F 38.3 °F 30.2 in NNW 3 mph 7 mph 88 % 0 in 0 W/m2
07:20 41.4 °F 38.3 °F 30.2 in NW 4 mph 8 mph 89 % 0 in 0 W/m2
07:25 41.2 °F 38.1 °F 30.2 in NW 3 mph 8 mph 89 % 0 in 0 W/m2
07:30 41 °F 37.9 °F 30.2 in WNW 4 mph 7 mph 89 % 0 in 0 W/m2
07:35 40.8 °F 38.1 °F 30.2 in NW 5 mph 7 mph 90 % 0 in 0 W/m2
07:40 40.8 °F 38.1 °F 30.2 in Calm   7 mph 90 % 0 in 0 W/m2
07:45 40.6 °F 37.9 °F 30.2 in WNW 4 mph 7 mph 90 % 0 in 0 W/m2
07:50 40.6 °F 37.9 °F 30.2 in NNW 2 mph 7 mph 90 % 0 in 0 W/m2
07:55 40.5 °F 37.8 °F 30.2 in NW 2 mph 6 mph 90 % 0 in 0 W/m2
08:00 40.3 °F 37.6 °F 30.2 in NW 3 mph 6 mph 90 % 0 in 0 W/m2
08:05 40.3 °F 37.6 °F 30.2 in NW 6 mph 10 mph 90 % 0 in 0 W/m2
08:10 40.1 °F 37.8 °F 30.2 in NW 3 mph 10 mph 91 % 0 in 0 W/m2
08:15 40.1 °F 37.8 °F 30.2 in NNW 5 mph 7 mph 91 % 0 in 0 W/m2
08:20 40.1 °F 37.8 °F 30.2 in NW 6 mph 8 mph 91 % 0 in 0 W/m2
08:25 40.1 °F 37.8 °F 30.2 in NW 5 mph 8 mph 91 % 0 in 0 W/m2
08:30 40.3 °F 38.1 °F 30.2 in NW 2 mph 10 mph 92 % 0 in 0 W/m2
08:35 40.3 °F 38.1 °F 30.2 in NW 6 mph 10 mph 92 % 0 in 0 W/m2
08:40 40.5 °F 38.3 °F 30.2 in WNW 3 mph 7 mph 92 % 0 in 0 W/m2
08:45 40.5 °F 38.3 °F 30.2 in West 4 mph 12 mph 92 % 0 in 5 W/m2
08:50 40.6 °F 38.5 °F 30.2 in NW 3 mph 12 mph 92 % 0 in 7 W/m2
08:55 40.6 °F 38.5 °F 30.2 in NW 5 mph 11 mph 92 % 0 in 9 W/m2
09:00 40.8 °F 38.7 °F 30.2 in NW 4 mph 13 mph 92 % 0 in 12 W/m2
09:05 40.8 °F 38.8 °F 30.2 in WNW 3 mph 13 mph 92 % 0 in 14 W/m2
09:10 41 °F 38.8 °F 30.2 in NW 3 mph 9 mph 92 % 0 in 18 W/m2
09:15 41.2 °F 39 °F 30.2 in WNW 4 mph 9 mph 92 % 0 in 19 W/m2
09:20 41.2 °F 39 °F 30.2 in NNW 4 mph 9 mph 92 % 0 in 21 W/m2
09:25 41.4 °F 39.2 °F 30.2 in NW 7 mph 9 mph 92 % 0 in 25 W/m2
09:30 41.5 °F 39 °F 30.2 in NNW 7 mph 10 mph 91 % 0 in 26 W/m2
09:35 41.7 °F 39.2 °F 30.2 in NW 5 mph 11 mph 91 % 0 in 28 W/m2
09:40 41.9 °F 39.4 °F 30.2 in NW 4 mph 11 mph 91 % 0 in 28 W/m2
09:45 41.9 °F 39.4 °F 30.2 in NNW 10 mph 10 mph 91 % 0 in 30 W/m2
09:50 42.1 °F 39.2 °F 30.2 in WNW 5 mph 10 mph 90 % 0 in 32 W/m2
10:00 42.4 °F 39.7 °F 30.2 in NNW 5 mph 12 mph 90 % 0 in 35 W/m2
10:05 42.6 °F 39.6 °F 30.2 in NW 6 mph 13 mph 89 % 0 in 37 W/m2
10:10 42.8 °F 39.6 °F 30.3 in WNW 8 mph 13 mph 88 % 0 in 40 W/m2
10:15 43 °F 39.7 °F 30.3 in WNW 12 mph 13 mph 88 % 0 in 44 W/m2
10:20 43.3 °F 39.7 °F 30.3 in North 5 mph 13 mph 87 % 0 in 142 W/m2
10:25 44.2 °F 39.9 °F 30.3 in NNW 5 mph 15 mph 85 % 0 in 153 W/m2
10:30 44.6 °F 39.7 °F 30.3 in NW 8 mph 15 mph 83 % 0 in 163 W/m2
10:35 45 °F 39.7 °F 30.3 in WNW 2 mph 15 mph 82 % 0 in 176 W/m2
10:40 45.1 °F 39.9 °F 30.3 in NNW 7 mph 15 mph 82 % 0 in 185 W/m2
10:45 45.3 °F 39.7 °F 30.3 in WNW 9 mph 13 mph 81 % 0 in 197 W/m2
10:50 45.7 °F 39.7 °F 30.3 in WNW 5 mph 16 mph 80 % 0 in 202 W/m2
10:55 45.9 °F 39.9 °F 30.3 in WNW 2 mph 16 mph 80 % 0 in 214 W/m2
11:00 46 °F 40.1 °F 30.3 in NW 6 mph 12 mph 80 % 0 in 225 W/m2
11:05 46.2 °F 40.1 °F 30.3 in West 7 mph 14 mph 79 % 0 in 236 W/m2
11:10 46.2 °F 40.1 °F 30.3 in WNW 10 mph 15 mph 79 % 0 in 239 W/m2
11:15 46.4 °F 39.6 °F 30.3 in WNW 4 mph 16 mph 77 % 0 in 248 W/m2
11:20 46.4 °F 39.2 °F 30.3 in NW 9 mph 17 mph 76 % 0 in 253 W/m2
11:25 46.6 °F 39.7 °F 30.3 in NW 12 mph 17 mph 77 % 0 in 258 W/m2
11:30 46.8 °F 39.9 °F 30.3 in NW 4 mph 15 mph 77 % 0 in 262 W/m2
11:35 46.9 °F 39.7 °F 30.3 in WNW 8 mph 15 mph 76 % 0 in 267 W/m2
11:40 46.9 °F 40.1 °F 30.3 in NNW 7 mph 15 mph 77 % 0 in 272 W/m2
11:45 47.1 °F 39.9 °F 30.3 in WNW 5 mph 13 mph 76 % 0 in 281 W/m2
11:55 46.9 °F 38.8 °F 30.3 in WNW 8 mph 18 mph 73 % 0 in 288 W/m2
12:00 47.1 °F 39.7 °F 30.3 in North 7 mph 18 mph 75 % 0 in 258 W/m2
12:10 47.3 °F 39 °F 30.3 in West 7 mph 18 mph 73 % 0 in 297 W/m2
12:15 47.1 °F 38.3 °F 30.3 in NW 9 mph 18 mph 71 % 0 in 304 W/m2
12:20 47.7 °F 39.4 °F 30.3 in NW 8 mph 15 mph 73 % 0 in 308 W/m2
12:25 47.7 °F 39 °F 30.3 in North 9 mph 15 mph 72 % 0 in 311 W/m2
12:30 47.5 °F 38.8 °F 30.3 in WNW 6 mph 15 mph 72 % 0 in 318 W/m2
12:35 47.7 °F 38.8 °F 30.3 in NW 5 mph 14 mph 71 % 0 in 316 W/m2
12:40 47.8 °F 39.4 °F 30.3 in WNW 7 mph 14 mph 72 % 0 in 318 W/m2
12:45 48.2 °F 39.2 °F 30.3 in NW 6 mph 14 mph 71 % 0 in 323 W/m2
12:50 48.4 °F 38.7 °F 30.3 in WNW 12 mph 18 mph 69 % 0 in 323 W/m2
12:55 48.6 °F 38.8 °F 30.3 in NNE 16 mph 18 mph 69 % 0 in 323 W/m2
13:00 48.6 °F 38.8 °F 30.3 in WNW 3 mph 17 mph 69 % 0 in 322 W/m2
13:05 48 °F 37.9 °F 30.3 in NNW 7 mph 20 mph 68 % 0 in 323 W/m2
13:10 48 °F 38.5 °F 30.3 in NW 8 mph 20 mph 69 % 0 in 322 W/m2
13:15 48.4 °F 37.8 °F 30.3 in NW 7 mph 17 mph 67 % 0 in 320 W/m2
13:20 48.4 °F 37.8 °F 30.3 in NW 4 mph 17 mph 67 % 0 in 320 W/m2
13:25 48.6 °F 38.5 °F 30.3 in WNW 3 mph 15 mph 68 % 0 in 316 W/m2
13:30 48.7 °F 38.3 °F 30.3 in NNW 6 mph 17 mph 67 % 0 in 315 W/m2
13:35 48.7 °F 38.3 °F 30.3 in NW 8 mph 17 mph 67 % 0 in 311 W/m2
13:40 48.7 °F 38.7 °F 30.3 in NW 8 mph 17 mph 68 % 0 in 309 W/m2
13:45 48.6 °F 38.5 °F 30.3 in WNW 4 mph 16 mph 68 % 0 in 308 W/m2
13:50 48.6 °F 38.5 °F 30.3 in NW 6 mph 16 mph 68 % 0 in 299 W/m2
13:55 48.7 °F 39.4 °F 30.3 in NW 8 mph 15 mph 70 % 0 in 294 W/m2
14:00 48.9 °F 39.9 °F 30.3 in NNW 11 mph 16 mph 71 % 0 in 295 W/m2
14:05 48.6 °F 37.8 °F 30.3 in NNW 9 mph 16 mph 66 % 0 in 294 W/m2
14:10 48.4 °F 36.7 °F 30.3 in NW 7 mph 19 mph 64 % 0 in 283 W/m2
14:15 48.4 °F 37.4 °F 30.3 in NNW 3 mph 19 mph 66 % 0 in 279 W/m2
14:20 48.4 °F 36.3 °F 30.3 in NW 9 mph 17 mph 63 % 0 in 274 W/m2
14:25 48.6 °F 36.9 °F 30.3 in NNW 12 mph 17 mph 64 % 0 in 272 W/m2
14:30 48.4 °F 36.3 °F 30.3 in West 9 mph 16 mph 63 % 0 in 262 W/m2
14:35 48.4 °F 36.3 °F 30.3 in NW 6 mph 17 mph 63 % 0 in 262 W/m2
14:40 48.4 °F 36.3 °F 30.3 in WNW 9 mph 19 mph 63 % 0 in 339 W/m2
14:45 49.6 °F 38.3 °F 30.3 in NNW 6 mph 19 mph 65 % 0 in 357 W/m2
14:50 50.4 °F 37.8 °F 30.3 in West 7 mph 16 mph 62 % 0 in 334 W/m2
14:55 50.4 °F 37.8 °F 30.3 in North 10 mph 16 mph 62 % 0 in 338 W/m2
15:00 49.5 °F 38.5 °F 30.3 in WNW 4 mph 16 mph 66 % 0 in 185 W/m2
15:05 49.5 °F 38.1 °F 30.3 in NNW 10 mph 15 mph 65 % 0 in 311 W/m2
15:10 48.7 °F 37.2 °F 30.3 in WNW 9 mph 17 mph 64 % 0 in 255 W/m2
15:15 48.4 °F 36.3 °F 30.3 in NW 9 mph 17 mph 63 % 0 in 216 W/m2
15:20 47.3 °F 36.1 °F 30.3 in WNW 5 mph 15 mph 65 % 0 in 183 W/m2
15:25 47.1 °F 36 °F 30.3 in NW 9 mph 12 mph 65 % 0 in 169 W/m2
15:30 46.9 °F 36.7 °F 30.3 in NW 14 mph 19 mph 67 % 0 in 155 W/m2
15:35 46.8 °F 36 °F 30.3 in WNW 8 mph 19 mph 66 % 0 in 91 W/m2
15:40 46.6 °F 35.8 °F 30.3 in WNW 8 mph 14 mph 66 % 0 in 74 W/m2
15:45 46.2 °F 36 °F 30.3 in NNW 7 mph 18 mph 67 % 0 in 51 W/m2
15:50 46 °F 35.8 °F 30.3 in West 7 mph 18 mph 67 % 0 in 51 W/m2
15:55 46 °F 35.4 °F 30.3 in NW 7 mph 16 mph 66 % 0 in 62 W/m2
16:00 46 °F 35.2 °F 30.3 in North 9 mph 19 mph 66 % 0 in 74 W/m2
16:05 45.9 °F 35.2 °F 30.3 in WNW 9 mph 19 mph 66 % 0 in 42 W/m2
16:10 45.7 °F 35.6 °F 30.3 in NW 11 mph 16 mph 68 % 0 in 37 W/m2
16:15 45.3 °F 35.8 °F 30.3 in NW 4 mph 16 mph 69 % 0 in 44 W/m2
16:20 45.1 °F 36 °F 30.3 in NW 7 mph 13 mph 70 % 0 in 30 W/m2
16:25 44.8 °F 36 °F 30.3 in NNW 6 mph 14 mph 71 % 0 in 28 W/m2
16:35 44.4 °F 35.6 °F 30.3 in North 1 mph 13 mph 71 % 0 in 19 W/m2
16:40 44.2 °F 35.8 °F 30.3 in North 1 mph 13 mph 72 % 0 in 18 W/m2
16:45 43.9 °F 35.8 °F 30.3 in NW 7 mph 13 mph 73 % 0 in 14 W/m2
16:50 44.1 °F 36 °F 30.3 in NNW 5 mph 12 mph 73 % 0 in 12 W/m2
16:55 43.9 °F 35.8 °F 30.3 in WNW 6 mph 11 mph 73 % 0 in 9 W/m2
17:05 44.1 °F 35.6 °F 30.3 in West 5 mph 12 mph 72 % 0 in 7 W/m2
17:20 43.7 °F 35.2 °F 30.3 in NNW 4 mph 9 mph 72 % 0 in 0 W/m2
17:25 43.3 °F 35.1 °F 30.3 in WNW 3 mph 10 mph 72 % 0 in 0 W/m2
17:30 43.3 °F 35.2 °F 30.3 in WNW 6 mph 11 mph 73 % 0 in 0 W/m2
17:35 43.3 °F 35.6 °F 30.3 in NW 5 mph 11 mph 74 % 0 in 0 W/m2
17:40 43.2 °F 35.4 °F 30.3 in NW 5 mph 10 mph 74 % 0 in 0 W/m2
17:50 43.3 °F 36 °F 30.3 in WNW 3 mph 9 mph 75 % 0 in 0 W/m2
17:55 43.3 °F 36 °F 30.3 in NW 6 mph 9 mph 75 % 0 in 0 W/m2
18:00 43.7 °F 36.3 °F 30.3 in NW 5 mph 9 mph 75 % 0 in 0 W/m2
18:05 43.5 °F 36.1 °F 30.3 in WNW 5 mph 13 mph 75 % 0 in 0 W/m2
18:10 43.3 °F 36 °F 30.3 in NW 7 mph 13 mph 75 % 0 in 0 W/m2
18:15 43.2 °F 36.5 °F 30.3 in WNW 4 mph 11 mph 77 % 0 in 0 W/m2
18:20 43 °F 36.1 °F 30.3 in NW 4 mph 13 mph 77 % 0 in 0 W/m2
18:25 42.8 °F 35.8 °F 30.3 in WNW 4 mph 13 mph 76 % 0 in 0 W/m2
18:30 42.4 °F 35.8 °F 30.3 in NW 6 mph 11 mph 77 % 0 in 0 W/m2
18:35 42.4 °F 35.8 °F 30.3 in NW 4 mph 13 mph 77 % 0 in 0 W/m2
18:40 42.1 °F 35.8 °F 30.3 in NNW 5 mph 13 mph 78 % 0 in 0 W/m2
18:45 42.3 °F 36 °F 30.3 in NW 2 mph 11 mph 78 % 0 in 0 W/m2
18:55 42.4 °F 35.8 °F 30.3 in WNW 9 mph 12 mph 77 % 0 in 0 W/m2
19:00 42.3 °F 35.6 °F 30.3 in NNW 6 mph 11 mph 77 % 0 in 0 W/m2
19:05 42.3 °F 35.2 °F 30.3 in WNW 12 mph 14 mph 76 % 0 in 0 W/m2
19:10 41.9 °F 34.9 °F 30.3 in WNW 3 mph 14 mph 76 % 0 in 0 W/m2
19:15 41.7 °F 35.1 °F 30.3 in NW 7 mph 12 mph 77 % 0 in 0 W/m2
19:20 41.7 °F 35.1 °F 30.3 in WNW 5 mph 12 mph 77 % 0 in 0 W/m2
19:25 41.7 °F 35.1 °F 30.3 in NW 6 mph 10 mph 77 % 0 in 0 W/m2
19:30 41.9 °F 35.6 °F 30.3 in NW 4 mph 12 mph 78 % 0 in 0 W/m2
19:35 41.9 °F 35.6 °F 30.3 in WNW 7 mph 12 mph 78 % 0 in 0 W/m2
19:40 41.9 °F 35.6 °F 30.3 in WNW 4 mph 12 mph 78 % 0 in 0 W/m2
19:45 42.1 °F 35.6 °F 30.3 in NW 2 mph 12 mph 78 % 0 in 0 W/m2
19:50 41.7 °F 35.4 °F 30.3 in WNW 7 mph 10 mph 78 % 0 in 0 W/m2
19:55 41.7 °F 35.4 °F 30.3 in North 4 mph 11 mph 78 % 0 in 0 W/m2
20:00 41.5 °F 35.2 °F 30.3 in NW 4 mph 11 mph 78 % 0 in 0 W/m2
20:05 41.5 °F 35.4 °F 30.3 in NW 7 mph 11 mph 79 % 0 in 0 W/m2
20:10 41.2 °F 35.2 °F 30.3 in NW 4 mph 11 mph 79 % 0 in 0 W/m2
20:20 41 °F 35.2 °F 30.3 in NW 3 mph 10 mph 80 % 0 in 0 W/m2
20:25 41 °F 35.6 °F 30.3 in WNW 4 mph 11 mph 81 % 0 in 0 W/m2
20:30 41.4 °F 35.6 °F 30.3 in NW 5 mph 11 mph 80 % 0 in 0 W/m2
20:35 41.2 °F 35.4 °F 30.3 in NW 4 mph 9 mph 80 % 0 in 0 W/m2
20:40 40.3 °F 34.9 °F 30.3 in NW 6 mph 7 mph 81 % 0 in 0 W/m2
20:45 39.7 °F 34.9 °F 30.3 in WNW 2 mph 10 mph 83 % 0 in 0 W/m2
20:50 39.6 °F 34.9 °F 30.3 in NW 3 mph 10 mph 83 % 0 in 0 W/m2
20:55 39.4 °F 34.9 °F 30.3 in WNW 1 mph 8 mph 84 % 0 in 0 W/m2
21:00 39.6 °F 35.1 °F 30.3 in WNW 3 mph 11 mph 84 % 0 in 0 W/m2
21:05 39.7 °F 35.4 °F 30.3 in Calm   11 mph 84 % 0 in 0 W/m2
21:10 39.6 °F 35.2 °F 30.3 in NW 3 mph 10 mph 84 % 0 in 0 W/m2
21:15 39.6 °F 35.2 °F 30.3 in West 4 mph 10 mph 84 % 0 in 0 W/m2
21:20 39.4 °F 34.9 °F 30.3 in NNW 5 mph 10 mph 84 % 0 in 0 W/m2
21:25 39.4 °F 34.9 °F 30.3 in NW 5 mph 7 mph 84 % 0 in 0 W/m2
21:30 39 °F 34.7 °F 30.3 in West 4 mph 9 mph 84 % 0 in 0 W/m2
21:35 39.4 °F 35.2 °F 30.3 in NW 3 mph 9 mph 85 % 0 in 0 W/m2
21:40 39.4 °F 35.2 °F 30.3 in NNW 5 mph 8 mph 85 % 0 in 0 W/m2
21:45 39.6 °F 35.1 °F 30.3 in NW 4 mph 10 mph 84 % 0 in 0 W/m2
21:50 39.4 °F 34.9 °F 30.3 in North 6 mph 10 mph 84 % 0 in 0 W/m2
21:55 38.8 °F 34.7 °F 30.3 in NW 1 mph 8 mph 85 % 0 in 0 W/m2
22:00 38.7 °F 34.5 °F 30.3 in NW 2 mph 6 mph 85 % 0 in 0 W/m2
22:05 37.9 °F 34.2 °F 30.3 in Calm   5 mph 86 % 0 in 0 W/m2
22:10 37.6 °F 34 °F 30.3 in NNW 1 mph 5 mph 87 % 0 in 0 W/m2
22:15 37 °F 33.8 °F 30.3 in NW 1 mph 3 mph 88 % 0 in 0 W/m2
22:20 36.7 °F 33.4 °F 30.3 in Calm   3 mph 88 % 0 in 0 W/m2
22:25 36.9 °F 33.8 °F 30.3 in Calm   4 mph 89 % 0 in 0 W/m2
22:35 36.1 °F 33.3 °F 30.3 in NW 2 mph 5 mph 89 % 0 in 0 W/m2
22:40 36 °F 32.9 °F 30.3 in WNW 1 mph 5 mph 89 % 0 in 0 W/m2
22:45 36 °F 33.3 °F 30.3 in NW 3 mph 5 mph 90 % 0 in 0 W/m2
22:50 36.1 °F 33.8 °F 30.3 in WNW 1 mph 5 mph 91 % 0 in 0 W/m2
22:55 36.1 °F 33.8 °F 30.3 in Calm   5 mph 91 % 0 in 0 W/m2
23:00 36.3 °F 34 °F 30.3 in WNW 3 mph 8 mph 91 % 0 in 0 W/m2
23:05 36.9 °F 34.2 °F 30.3 in NW 4 mph 8 mph 90 % 0 in 0 W/m2
23:10 37.2 °F 34.7 °F 30.3 in NW 5 mph 12 mph 90 % 0 in 0 W/m2
23:15 37.9 °F 34.9 °F 30.3 in NNW 4 mph 12 mph 89 % 0 in 0 W/m2
23:20 37.9 °F 34.7 °F 30.3 in NNW 3 mph 10 mph 88 % 0 in 0 W/m2
23:25 37.8 °F 34.3 °F 30.3 in NW 2 mph 10 mph 87 % 0 in 0 W/m2
23:30 37.8 °F 34.2 °F 30.3 in WNW 4 mph 7 mph 87 % 0 in 0 W/m2
23:35 37.4 °F 33.8 °F 30.3 in North 3 mph 8 mph 87 % 0 in 0 W/m2
23:40 37.2 °F 33.8 °F 30.3 in NNW 3 mph 8 mph 87 % 0 in 0 W/m2
23:45 37 °F 33.4 °F 30.3 in NW 3 mph 6 mph 87 % 0 in 0 W/m2
23:50 37 °F 33.8 °F 30.3 in NNW 4 mph 8 mph 88 % 0 in 0 W/m2
23:55 36.9 °F 33.6 °F 30.3 in NW 3 mph 8 mph 88 % 0 in 0 W/m2
Avec l'autorisation de Weather Underground - 1.75 mb